sensor_id;sensor_type;location;lat;lon;timestamp;P1;durP1;ratioP1;P2;durP2;ratioP2
26696;SDS011;14312;52.614;13.496;2022-09-17T00:00:28;1.98;;;1.40;;
26696;SDS011;14312;52.614;13.496;2022-09-17T00:03:14;2.85;;;1.40;;
26696;SDS011;14312;52.614;13.496;2022-09-17T00:06:05;2.33;;;1.30;;
26696;SDS011;14312;52.614;13.496;2022-09-17T00:08:53;2.85;;;1.80;;
26696;SDS011;14312;52.614;13.496;2022-09-17T00:11:39;3.47;;;1.60;;
26696;SDS011;14312;52.614;13.496;2022-09-17T00:14:26;2.28;;;1.30;;
26696;SDS011;14312;52.614;13.496;2022-09-17T00:17:12;1.90;;;1.30;;
26696;SDS011;14312;52.614;13.496;2022-09-17T00:19:58;1.98;;;1.20;;
26696;SDS011;14312;52.614;13.496;2022-09-17T00:22:43;2.72;;;1.45;;
26696;SDS011;14312;52.614;13.496;2022-09-17T00:25:29;1.65;;;1.15;;
26696;SDS011;14312;52.614;13.496;2022-09-17T00:28:16;2.92;;;1.40;;
26696;SDS011;14312;52.614;13.496;2022-09-17T00:31:08;1.83;;;1.20;;
26696;SDS011;14312;52.614;13.496;2022-09-17T00:33:55;2.65;;;1.45;;
26696;SDS011;14312;52.614;13.496;2022-09-17T00:36:42;2.58;;;1.20;;
26696;SDS011;14312;52.614;13.496;2022-09-17T00:39:27;1.65;;;1.17;;
26696;SDS011;14312;52.614;13.496;2022-09-17T00:42:13;2.05;;;1.58;;
26696;SDS011;14312;52.614;13.496;2022-09-17T00:45:00;2.15;;;1.27;;
26696;SDS011;14312;52.614;13.496;2022-09-17T00:47:56;2.03;;;1.65;;
26696;SDS011;14312;52.614;13.496;2022-09-17T00:50:44;2.60;;;1.58;;
26696;SDS011;14312;52.614;13.496;2022-09-17T00:53:30;2.22;;;1.27;;
26696;SDS011;14312;52.614;13.496;2022-09-17T00:56:23;1.50;;;1.40;;
26696;SDS011;14312;52.614;13.496;2022-09-17T00:59:13;2.88;;;1.40;;
26696;SDS011;14312;52.614;13.496;2022-09-17T01:01:59;2.55;;;1.50;;
26696;SDS011;14312;52.614;13.496;2022-09-17T01:04:46;2.65;;;1.27;;
26696;SDS011;14312;52.614;13.496;2022-09-17T01:07:44;1.73;;;1.15;;
26696;SDS011;14312;52.614;13.496;2022-09-17T01:20:32;2.45;;;1.42;;
26696;SDS011;14312;52.614;13.496;2022-09-17T01:23:43;2.53;;;1.50;;
26696;SDS011;14312;52.614;13.496;2022-09-17T01:30:14;1.92;;;1.20;;
26696;SDS011;14312;52.614;13.496;2022-09-17T01:33:22;1.92;;;1.20;;
26696;SDS011;14312;52.614;13.496;2022-09-17T01:36:48;2.00;;;1.23;;
26696;SDS011;14312;52.614;13.496;2022-09-17T01:42:46;3.70;;;1.90;;
26696;SDS011;14312;52.614;13.496;2022-09-17T01:45:55;2.33;;;1.55;;
26696;SDS011;14312;52.614;13.496;2022-09-17T01:48:48;3.10;;;1.63;;
26696;SDS011;14312;52.614;13.496;2022-09-17T01:51:38;2.97;;;1.30;;
26696;SDS011;14312;52.614;13.496;2022-09-17T01:54:29;3.17;;;1.50;;
26696;SDS011;14312;52.614;13.496;2022-09-17T01:57:33;2.13;;;1.38;;
26696;SDS011;14312;52.614;13.496;2022-09-17T02:00:25;2.40;;;1.38;;
26696;SDS011;14312;52.614;13.496;2022-09-17T02:03:19;4.32;;;1.67;;
26696;SDS011;14312;52.614;13.496;2022-09-17T02:09:17;3.25;;;1.63;;
26696;SDS011;14312;52.614;13.496;2022-09-17T02:12:09;1.35;;;1.15;;
26696;SDS011;14312;52.614;13.496;2022-09-17T02:15:01;2.13;;;1.38;;
26696;SDS011;14312;52.614;13.496;2022-09-17T02:17:55;2.97;;;1.67;;
26696;SDS011;14312;52.614;13.496;2022-09-17T02:20:49;3.67;;;2.28;;
26696;SDS011;14312;52.614;13.496;2022-09-17T02:24:05;2.33;;;1.75;;
26696;SDS011;14312;52.614;13.496;2022-09-17T02:26:56;2.72;;;1.35;;
26696;SDS011;14312;52.614;13.496;2022-09-17T02:29:46;2.53;;;1.40;;
26696;SDS011;14312;52.614;13.496;2022-09-17T02:32:32;2.45;;;1.42;;
26696;SDS011;14312;52.614;13.496;2022-09-17T02:35:18;2.00;;;1.48;;
26696;SDS011;14312;52.614;13.496;2022-09-17T02:38:04;2.78;;;1.50;;
26696;SDS011;14312;52.614;13.496;2022-09-17T02:40:51;3.95;;;1.35;;
26696;SDS011;14312;52.614;13.496;2022-09-17T02:43:46;1.83;;;1.20;;
26696;SDS011;14312;52.614;13.496;2022-09-17T02:46:53;3.15;;;1.40;;
26696;SDS011;14312;52.614;13.496;2022-09-17T02:56:43;2.33;;;1.50;;
26696;SDS011;14312;52.614;13.496;2022-09-17T03:02:42;1.75;;;1.25;;
26696;SDS011;14312;52.614;13.496;2022-09-17T03:05:48;2.08;;;1.17;;
26696;SDS011;14312;52.614;13.496;2022-09-17T03:08:36;1.98;;;1.38;;
26696;SDS011;14312;52.614;13.496;2022-09-17T03:11:24;1.95;;;1.30;;
26696;SDS011;14312;52.614;13.496;2022-09-17T03:14:10;3.55;;;1.50;;
26696;SDS011;14312;52.614;13.496;2022-09-17T03:16:56;3.05;;;1.35;;
26696;SDS011;14312;52.614;13.496;2022-09-17T03:19:42;2.05;;;1.20;;
26696;SDS011;14312;52.614;13.496;2022-09-17T03:22:28;4.88;;;1.90;;
26696;SDS011;14312;52.614;13.496;2022-09-17T03:25:14;2.45;;;1.30;;
26696;SDS011;14312;52.614;13.496;2022-09-17T03:28:00;3.63;;;1.42;;
26696;SDS011;14312;52.614;13.496;2022-09-17T03:30:46;2.88;;;1.40;;
26696;SDS011;14312;52.614;13.496;2022-09-17T03:33:32;2.92;;;1.33;;
26696;SDS011;14312;52.614;13.496;2022-09-17T03:36:17;3.33;;;1.52;;
26696;SDS011;14312;52.614;13.496;2022-09-17T03:39:03;2.55;;;1.30;;
26696;SDS011;14312;52.614;13.496;2022-09-17T03:41:49;2.95;;;1.30;;
26696;SDS011;14312;52.614;13.496;2022-09-17T03:44:35;3.72;;;1.63;;
26696;SDS011;14312;52.614;13.496;2022-09-17T03:47:21;2.10;;;1.38;;
26696;SDS011;14312;52.614;13.496;2022-09-17T03:50:07;2.42;;;1.45;;
26696;SDS011;14312;52.614;13.496;2022-09-17T03:52:53;4.32;;;1.60;;
26696;SDS011;14312;52.614;13.496;2022-09-17T03:55:39;4.05;;;1.50;;
26696;SDS011;14312;52.614;13.496;2022-09-17T03:58:25;3.33;;;1.45;;
26696;SDS011;14312;52.614;13.496;2022-09-17T04:01:12;4.05;;;1.75;;
26696;SDS011;14312;52.614;13.496;2022-09-17T04:03:58;4.15;;;1.50;;
26696;SDS011;14312;52.614;13.496;2022-09-17T04:06:43;2.83;;;1.35;;
26696;SDS011;14312;52.614;13.496;2022-09-17T04:09:29;2.78;;;1.40;;
26696;SDS011;14312;52.614;13.496;2022-09-17T04:12:15;3.13;;;1.38;;
26696;SDS011;14312;52.614;13.496;2022-09-17T04:15:01;2.75;;;1.40;;
26696;SDS011;14312;52.614;13.496;2022-09-17T04:17:47;3.78;;;1.33;;
26696;SDS011;14312;52.614;13.496;2022-09-17T04:20:33;1.58;;;1.02;;
26696;SDS011;14312;52.614;13.496;2022-09-17T04:23:19;2.50;;;1.48;;
26696;SDS011;14312;52.614;13.496;2022-09-17T04:26:05;5.40;;;1.67;;
26696;SDS011;14312;52.614;13.496;2022-09-17T04:28:50;2.08;;;1.15;;
26696;SDS011;14312;52.614;13.496;2022-09-17T04:31:36;2.33;;;1.30;;
26696;SDS011;14312;52.614;13.496;2022-09-17T04:34:22;2.00;;;1.20;;
26696;SDS011;14312;52.614;13.496;2022-09-17T04:37:08;2.97;;;1.20;;
26696;SDS011;14312;52.614;13.496;2022-09-17T04:39:54;2.40;;;1.27;;
26696;SDS011;14312;52.614;13.496;2022-09-17T04:42:40;3.97;;;1.27;;
26696;SDS011;14312;52.614;13.496;2022-09-17T04:45:26;2.50;;;1.50;;
26696;SDS011;14312;52.614;13.496;2022-09-17T04:48:11;2.72;;;1.45;;
26696;SDS011;14312;52.614;13.496;2022-09-17T04:50:57;3.40;;;1.27;;
26696;SDS011;14312;52.614;13.496;2022-09-17T04:53:43;3.15;;;1.52;;
26696;SDS011;14312;52.614;13.496;2022-09-17T04:56:29;4.30;;;1.63;;
26696;SDS011;14312;52.614;13.496;2022-09-17T04:59:14;4.53;;;1.63;;
26696;SDS011;14312;52.614;13.496;2022-09-17T05:02:00;2.58;;;1.20;;
26696;SDS011;14312;52.614;13.496;2022-09-17T05:04:46;3.75;;;1.70;;
26696;SDS011;14312;52.614;13.496;2022-09-17T05:07:32;1.92;;;1.30;;
26696;SDS011;14312;52.614;13.496;2022-09-17T05:10:18;3.78;;;1.80;;
26696;SDS011;14312;52.614;13.496;2022-09-17T05:13:06;5.88;;;2.03;;
26696;SDS011;14312;52.614;13.496;2022-09-17T05:15:53;4.35;;;2.00;;
26696;SDS011;14312;52.614;13.496;2022-09-17T05:18:41;3.45;;;1.50;;
26696;SDS011;14312;52.614;13.496;2022-09-17T05:21:26;3.10;;;1.38;;
26696;SDS011;14312;52.614;13.496;2022-09-17T05:24:12;2.10;;;1.40;;
26696;SDS011;14312;52.614;13.496;2022-09-17T05:26:58;3.00;;;1.63;;
26696;SDS011;14312;52.614;13.496;2022-09-17T05:29:44;2.67;;;1.63;;
26696;SDS011;14312;52.614;13.496;2022-09-17T05:32:29;5.40;;;1.52;;
26696;SDS011;14312;52.614;13.496;2022-09-17T05:35:15;4.35;;;1.60;;
26696;SDS011;14312;52.614;13.496;2022-09-17T05:38:02;2.63;;;1.58;;
26696;SDS011;14312;52.614;13.496;2022-09-17T05:40:49;2.60;;;1.33;;
26696;SDS011;14312;52.614;13.496;2022-09-17T05:43:35;4.40;;;1.52;;
26696;SDS011;14312;52.614;13.496;2022-09-17T05:46:21;4.68;;;1.92;;
26696;SDS011;14312;52.614;13.496;2022-09-17T05:49:07;3.80;;;1.50;;
26696;SDS011;14312;52.614;13.496;2022-09-17T05:51:52;2.63;;;1.52;;
26696;SDS011;14312;52.614;13.496;2022-09-17T05:54:38;3.03;;;1.50;;
26696;SDS011;14312;52.614;13.496;2022-09-17T05:57:24;4.75;;;1.92;;
26696;SDS011;14312;52.614;13.496;2022-09-17T06:00:14;4.95;;;1.92;;
26696;SDS011;14312;52.614;13.496;2022-09-17T06:03:00;3.65;;;1.55;;
26696;SDS011;14312;52.614;13.496;2022-09-17T06:05:56;5.70;;;1.83;;
26696;SDS011;14312;52.614;13.496;2022-09-17T06:08:43;3.33;;;1.80;;
26696;SDS011;14312;52.614;13.496;2022-09-17T06:11:28;4.68;;;1.88;;
26696;SDS011;14312;52.614;13.496;2022-09-17T06:14:14;5.55;;;1.83;;
26696;SDS011;14312;52.614;13.496;2022-09-17T06:17:00;2.78;;;1.35;;
26696;SDS011;14312;52.614;13.496;2022-09-17T06:19:46;7.47;;;2.33;;
26696;SDS011;14312;52.614;13.496;2022-09-17T06:22:32;4.82;;;2.05;;
26696;SDS011;14312;52.614;13.496;2022-09-17T06:25:18;4.70;;;1.83;;
26696;SDS011;14312;52.614;13.496;2022-09-17T06:28:03;4.50;;;1.88;;
26696;SDS011;14312;52.614;13.496;2022-09-17T06:30:50;6.68;;;2.17;;
26696;SDS011;14312;52.614;13.496;2022-09-17T06:33:40;4.38;;;2.08;;
26696;SDS011;14312;52.614;13.496;2022-09-17T06:36:26;5.07;;;2.47;;
26696;SDS011;14312;52.614;13.496;2022-09-17T06:39:11;8.05;;;2.50;;
26696;SDS011;14312;52.614;13.496;2022-09-17T06:41:57;7.05;;;2.20;;
26696;SDS011;14312;52.614;13.496;2022-09-17T06:44:43;4.25;;;1.88;;
26696;SDS011;14312;52.614;13.496;2022-09-17T06:47:29;5.70;;;1.95;;
26696;SDS011;14312;52.614;13.496;2022-09-17T06:50:15;3.30;;;1.50;;
26696;SDS011;14312;52.614;13.496;2022-09-17T06:53:01;4.10;;;1.65;;
26696;SDS011;14312;52.614;13.496;2022-09-17T06:55:46;5.63;;;2.00;;
26696;SDS011;14312;52.614;13.496;2022-09-17T06:58:33;8.40;;;2.88;;
26696;SDS011;14312;52.614;13.496;2022-09-17T07:01:21;5.65;;;2.13;;
26696;SDS011;14312;52.614;13.496;2022-09-17T07:04:07;5.95;;;2.45;;
26696;SDS011;14312;52.614;13.496;2022-09-17T07:06:53;8.20;;;2.42;;
26696;SDS011;14312;52.614;13.496;2022-09-17T07:09:38;9.80;;;2.88;;
26696;SDS011;14312;52.614;13.496;2022-09-17T07:12:24;5.05;;;2.30;;
26696;SDS011;14312;52.614;13.496;2022-09-17T07:15:10;5.38;;;2.15;;
26696;SDS011;14312;52.614;13.496;2022-09-17T07:17:56;4.72;;;2.60;;
26696;SDS011;14312;52.614;13.496;2022-09-17T07:20:42;5.32;;;2.67;;
26696;SDS011;14312;52.614;13.496;2022-09-17T07:23:29;4.90;;;2.05;;
26696;SDS011;14312;52.614;13.496;2022-09-17T07:26:17;6.70;;;2.33;;
26696;SDS011;14312;52.614;13.496;2022-09-17T07:29:02;6.55;;;2.63;;
26696;SDS011;14312;52.614;13.496;2022-09-17T07:31:48;8.40;;;2.50;;
26696;SDS011;14312;52.614;13.496;2022-09-17T07:34:34;6.35;;;2.20;;
26696;SDS011;14312;52.614;13.496;2022-09-17T07:37:20;4.10;;;2.22;;
26696;SDS011;14312;52.614;13.496;2022-09-17T07:40:06;5.88;;;2.00;;
26696;SDS011;14312;52.614;13.496;2022-09-17T07:42:55;6.63;;;2.20;;
26696;SDS011;14312;52.614;13.496;2022-09-17T07:45:42;5.93;;;2.22;;
26696;SDS011;14312;52.614;13.496;2022-09-17T07:48:28;5.88;;;2.50;;
26696;SDS011;14312;52.614;13.496;2022-09-17T07:51:18;4.50;;;1.83;;
26696;SDS011;14312;52.614;13.496;2022-09-17T07:54:06;7.57;;;2.75;;
26696;SDS011;14312;52.614;13.496;2022-09-17T07:56:52;5.43;;;2.60;;
26696;SDS011;14312;52.614;13.496;2022-09-17T07:59:37;5.28;;;2.60;;
26696;SDS011;14312;52.614;13.496;2022-09-17T08:02:23;5.72;;;2.45;;
26696;SDS011;14312;52.614;13.496;2022-09-17T08:05:09;4.50;;;2.05;;
26696;SDS011;14312;52.614;13.496;2022-09-17T08:07:55;5.03;;;2.15;;
26696;SDS011;14312;52.614;13.496;2022-09-17T08:10:41;5.72;;;2.60;;
26696;SDS011;14312;52.614;13.496;2022-09-17T08:13:27;4.30;;;1.90;;
26696;SDS011;14312;52.614;13.496;2022-09-17T08:16:13;4.50;;;1.95;;
26696;SDS011;14312;52.614;13.496;2022-09-17T08:18:59;6.57;;;2.45;;
26696;SDS011;14312;52.614;13.496;2022-09-17T08:21:45;5.30;;;2.53;;
26696;SDS011;14312;52.614;13.496;2022-09-17T08:24:31;8.70;;;2.67;;
26696;SDS011;14312;52.614;13.496;2022-09-17T08:27:17;7.45;;;2.17;;
26696;SDS011;14312;52.614;13.496;2022-09-17T08:30:03;6.60;;;2.63;;
26696;SDS011;14312;52.614;13.496;2022-09-17T08:32:54;4.95;;;2.42;;
26696;SDS011;14312;52.614;13.496;2022-09-17T08:35:40;7.78;;;2.35;;
26696;SDS011;14312;52.614;13.496;2022-09-17T08:38:27;7.50;;;2.50;;
26696;SDS011;14312;52.614;13.496;2022-09-17T08:41:17;5.93;;;2.30;;
26696;SDS011;14312;52.614;13.496;2022-09-17T08:44:42;6.85;;;2.05;;
26696;SDS011;14312;52.614;13.496;2022-09-17T09:01:31;4.70;;;1.90;;
26696;SDS011;14312;52.614;13.496;2022-09-17T09:04:28;6.00;;;2.25;;
26696;SDS011;14312;52.614;13.496;2022-09-17T09:07:39;3.25;;;1.50;;
26696;SDS011;14312;52.614;13.496;2022-09-17T09:10:40;4.85;;;1.80;;
26696;SDS011;14312;52.614;13.496;2022-09-17T09:13:43;5.50;;;2.00;;
26696;SDS011;14312;52.614;13.496;2022-09-17T09:16:33;4.30;;;1.90;;
26696;SDS011;14312;52.614;13.496;2022-09-17T09:19:25;4.05;;;1.85;;
26696;SDS011;14312;52.614;13.496;2022-09-17T09:22:56;4.82;;;1.80;;
26696;SDS011;14312;52.614;13.496;2022-09-17T09:25:26;6.85;;;2.17;;
26696;SDS011;14312;52.614;13.496;2022-09-17T09:34:48;4.20;;;1.50;;
26696;SDS011;14312;52.614;13.496;2022-09-17T09:37:34;3.83;;;1.85;;
26696;SDS011;14312;52.614;13.496;2022-09-17T09:40:32;5.78;;;1.83;;
26696;SDS011;14312;52.614;13.496;2022-09-17T09:50:16;4.00;;;1.73;;
26696;SDS011;14312;52.614;13.496;2022-09-17T09:53:24;4.20;;;2.05;;
26696;SDS011;14312;52.614;13.496;2022-09-17T09:59:29;4.82;;;1.85;;
26696;SDS011;14312;52.614;13.496;2022-09-17T10:02:14;3.45;;;1.70;;
26696;SDS011;14312;52.614;13.496;2022-09-17T10:05:07;4.85;;;2.03;;
26696;SDS011;14312;52.614;13.496;2022-09-17T10:07:53;4.00;;;2.00;;
26696;SDS011;14312;52.614;13.496;2022-09-17T10:10:53;5.07;;;1.92;;
26696;SDS011;14312;52.614;13.496;2022-09-17T10:13:49;3.97;;;1.85;;
26696;SDS011;14312;52.614;13.496;2022-09-17T10:16:35;3.70;;;1.70;;
26696;SDS011;14312;52.614;13.496;2022-09-17T10:19:21;2.72;;;1.30;;
26696;SDS011;14312;52.614;13.496;2022-09-17T10:25:43;4.30;;;1.48;;
26696;SDS011;14312;52.614;13.496;2022-09-17T10:28:35;2.63;;;1.40;;
26696;SDS011;14312;52.614;13.496;2022-09-17T10:31:54;4.95;;;1.70;;
26696;SDS011;14312;52.614;13.496;2022-09-17T10:34:42;3.30;;;;;
26696;SDS011;14312;52.614;13.496;2022-09-17T10:37:44;4.47;;;1.60;;
26696;SDS011;14312;52.614;13.496;2022-09-17T10:40:31;3.00;;;1.42;;
26696;SDS011;14312;52.614;13.496;2022-09-17T10:43:20;3.67;;;1.60;;
26696;SDS011;14312;52.614;13.496;2022-09-17T10:46:08;4.00;;;1.50;;
26696;SDS011;14312;52.614;13.496;2022-09-17T10:49:13;5.70;;;1.90;;
26696;SDS011;14312;52.614;13.496;2022-09-17T10:58:02;2.97;;;1.58;;
26696;SDS011;14312;52.614;13.496;2022-09-17T11:03:52;2.38;;;1.48;;
26696;SDS011;14312;52.614;13.496;2022-09-17T11:06:57;1.63;;;1.30;;
26696;SDS011;14312;52.614;13.496;2022-09-17T11:13:45;6.43;;;1.67;;
26696;SDS011;14312;52.614;13.496;2022-09-17T11:22:57;5.63;;;1.83;;
26696;SDS011;14312;52.614;13.496;2022-09-17T11:25:59;4.53;;;1.55;;
26696;SDS011;14312;52.614;13.496;2022-09-17T11:38:41;3.00;;;1.40;;
26696;SDS011;14312;52.614;13.496;2022-09-17T11:41:36;3.03;;;1.50;;
26696;SDS011;14312;52.614;13.496;2022-09-17T11:44:28;3.08;;;1.45;;
26696;SDS011;14312;52.614;13.496;2022-09-17T11:50:27;4.57;;;1.58;;
26696;SDS011;14312;52.614;13.496;2022-09-17T11:53:23;4.13;;;1.52;;
26696;SDS011;14312;52.614;13.496;2022-09-17T11:56:32;3.05;;;1.23;;
26696;SDS011;14312;52.614;13.496;2022-09-17T11:59:34;3.75;;;1.35;;
26696;SDS011;14312;52.614;13.496;2022-09-17T12:02:41;3.15;;;1.67;;
26696;SDS011;14312;52.614;13.496;2022-09-17T12:08:52;3.92;;;1.52;;
26696;SDS011;14312;52.614;13.496;2022-09-17T12:12:06;2.97;;;1.25;;
26696;SDS011;14312;52.614;13.496;2022-09-17T12:15:02;2.67;;;1.40;;
26696;SDS011;14312;52.614;13.496;2022-09-17T12:20:42;1.80;;;0.95;;
26696;SDS011;14312;52.614;13.496;2022-09-17T12:23:34;2.58;;;1.35;;
26696;SDS011;14312;52.614;13.496;2022-09-17T12:26:28;1.90;;;1.20;;
26696;SDS011;14312;52.614;13.496;2022-09-17T12:29:29;2.78;;;1.25;;
26696;SDS011;14312;52.614;13.496;2022-09-17T12:32:44;2.95;;;1.25;;
26696;SDS011;14312;52.614;13.496;2022-09-17T12:42:32;0.68;;;0.63;;
26696;SDS011;14312;52.614;13.496;2022-09-17T12:45:57;1.50;;;0.80;;
26696;SDS011;14312;52.614;13.496;2022-09-17T12:49:08;2.30;;;1.00;;
26696;SDS011;14312;52.614;13.496;2022-09-17T12:57:59;1.05;;;0.77;;
26696;SDS011;14312;52.614;13.496;2022-09-17T13:01:00;1.55;;;0.80;;
26696;SDS011;14312;52.614;13.496;2022-09-17T13:04:13;2.90;;;1.33;;
26696;SDS011;14312;52.614;13.496;2022-09-17T13:07:14;1.15;;;0.90;;
26696;SDS011;14312;52.614;13.496;2022-09-17T13:16:22;3.38;;;1.10;;
26696;SDS011;14312;52.614;13.496;2022-09-17T13:22:47;2.90;;;1.02;;
26696;SDS011;14312;52.614;13.496;2022-09-17T13:25:47;1.23;;;0.90;;
26696;SDS011;14312;52.614;13.496;2022-09-17T13:28:36;1.92;;;1.10;;
26696;SDS011;14312;52.614;13.496;2022-09-17T13:37:04;2.08;;;1.10;;
26696;SDS011;14312;52.614;13.496;2022-09-17T13:40:03;1.63;;;1.00;;
26696;SDS011;14312;52.614;13.496;2022-09-17T13:48:49;1.90;;;1.20;;
26696;SDS011;14312;52.614;13.496;2022-09-17T13:54:34;2.42;;;1.30;;
26696;SDS011;14312;52.614;13.496;2022-09-17T13:57:23;1.98;;;0.82;;
26696;SDS011;14312;52.614;13.496;2022-09-17T14:00:27;2.25;;;1.10;;
26696;SDS011;14312;52.614;13.496;2022-09-17T14:12:56;1.70;;;1.02;;
26696;SDS011;14312;52.614;13.496;2022-09-17T14:18:33;2.83;;;1.20;;
26696;SDS011;14312;52.614;13.496;2022-09-17T14:21:38;2.90;;;1.10;;
26696;SDS011;14312;52.614;13.496;2022-09-17T14:24:31;1.05;;;0.73;;
26696;SDS011;14312;52.614;13.496;2022-09-17T14:28:30;2.20;;;1.27;;
26696;SDS011;14312;52.614;13.496;2022-09-17T14:30:47;2.03;;;1.25;;
26696;SDS011;14312;52.614;13.496;2022-09-17T14:33:33;3.38;;;1.10;;
26696;SDS011;14312;52.614;13.496;2022-09-17T14:36:19;2.80;;;1.20;;
26696;SDS011;14312;52.614;13.496;2022-09-17T14:39:14;1.95;;;1.20;;
26696;SDS011;14312;52.614;13.496;2022-09-17T14:42:12;1.63;;;1.05;;
26696;SDS011;14312;52.614;13.496;2022-09-17T14:45:03;3.25;;;1.00;;
26696;SDS011;14312;52.614;13.496;2022-09-17T14:48:16;2.30;;;1.10;;
26696;SDS011;14312;52.614;13.496;2022-09-17T14:51:23;1.83;;;1.15;;
26696;SDS011;14312;52.614;13.496;2022-09-17T15:00:14;2.05;;;1.30;;
26696;SDS011;14312;52.614;13.496;2022-09-17T15:03:02;1.30;;;1.00;;
26696;SDS011;14312;52.614;13.496;2022-09-17T15:05:48;1.95;;;1.00;;
26696;SDS011;14312;52.614;13.496;2022-09-17T15:08:40;1.95;;;0.80;;
26696;SDS011;14312;52.614;13.496;2022-09-17T15:11:30;0.60;;;0.60;;
26696;SDS011;14312;52.614;13.496;2022-09-17T15:14:30;0.68;;;0.68;;
26696;SDS011;14312;52.614;13.496;2022-09-17T15:17:18;0.65;;;0.47;;
26696;SDS011;14312;52.614;13.496;2022-09-17T15:20:04;0.65;;;0.60;;
26696;SDS011;14312;52.614;13.496;2022-09-17T15:26:14;1.13;;;0.70;;
26696;SDS011;14312;52.614;13.496;2022-09-17T15:29:05;0.50;;;0.50;;
26696;SDS011;14312;52.614;13.496;2022-09-17T15:31:51;0.57;;;0.57;;
26696;SDS011;14312;52.614;13.496;2022-09-17T15:34:37;0.50;;;0.50;;
26696;SDS011;14312;52.614;13.496;2022-09-17T15:37:26;0.50;;;0.50;;
26696;SDS011;14312;52.614;13.496;2022-09-17T15:40:14;1.25;;;0.70;;
26696;SDS011;14312;52.614;13.496;2022-09-17T15:43:25;1.05;;;0.70;;
26696;SDS011;14312;52.614;13.496;2022-09-17T15:46:20;0.60;;;0.60;;
26696;SDS011;14312;52.614;13.496;2022-09-17T15:49:25;0.60;;;0.60;;
26696;SDS011;14312;52.614;13.496;2022-09-17T15:52:26;0.75;;;0.70;;
26696;SDS011;14312;52.614;13.496;2022-09-17T15:56:18;0.70;;;0.70;;
26696;SDS011;14312;52.614;13.496;2022-09-17T16:04:22;0.50;;;0.50;;
26696;SDS011;14312;52.614;13.496;2022-09-17T16:09:55;0.40;;;0.40;;
26696;SDS011;14312;52.614;13.496;2022-09-17T16:12:43;0.98;;;0.75;;
26696;SDS011;14312;52.614;13.496;2022-09-17T16:15:29;0.80;;;0.60;;
26696;SDS011;14312;52.614;13.496;2022-09-17T16:18:15;0.77;;;0.60;;
26696;SDS011;14312;52.614;13.496;2022-09-17T16:21:01;2.78;;;0.90;;
26696;SDS011;14312;52.614;13.496;2022-09-17T16:23:47;1.67;;;0.80;;
26696;SDS011;14312;52.614;13.496;2022-09-17T16:26:32;1.65;;;1.00;;
26696;SDS011;14312;52.614;13.496;2022-09-17T16:29:19;2.88;;;1.10;;
26696;SDS011;14312;52.614;13.496;2022-09-17T16:32:07;0.70;;;0.70;;
26696;SDS011;14312;52.614;13.496;2022-09-17T16:34:55;1.33;;;0.73;;
26696;SDS011;14312;52.614;13.496;2022-09-17T16:37:41;1.20;;;0.80;;
26696;SDS011;14312;52.614;13.496;2022-09-17T16:40:27;1.17;;;0.80;;
26696;SDS011;14312;52.614;13.496;2022-09-17T16:43:13;1.83;;;1.20;;
26696;SDS011;14312;52.614;13.496;2022-09-17T16:46:00;1.13;;;1.00;;
26696;SDS011;14312;52.614;13.496;2022-09-17T16:48:49;1.85;;;1.00;;
26696;SDS011;14312;52.614;13.496;2022-09-17T16:51:35;0.98;;;0.77;;
26696;SDS011;14312;52.614;13.496;2022-09-17T16:54:21;1.50;;;0.88;;
26696;SDS011;14312;52.614;13.496;2022-09-17T16:57:07;1.33;;;0.88;;
26696;SDS011;14312;52.614;13.496;2022-09-17T16:59:53;2.28;;;0.90;;
26696;SDS011;14312;52.614;13.496;2022-09-17T17:02:39;0.93;;;0.80;;
26696;SDS011;14312;52.614;13.496;2022-09-17T17:05:25;1.52;;;0.88;;
26696;SDS011;14312;52.614;13.496;2022-09-17T17:08:12;1.42;;;1.00;;
26696;SDS011;14312;52.614;13.496;2022-09-17T17:10:59;1.42;;;1.00;;
26696;SDS011;14312;52.614;13.496;2022-09-17T17:13:45;1.67;;;0.95;;
26696;SDS011;14312;52.614;13.496;2022-09-17T17:16:31;1.38;;;1.08;;
26696;SDS011;14312;52.614;13.496;2022-09-17T17:19:17;0.85;;;0.85;;
26696;SDS011;14312;52.614;13.496;2022-09-17T17:22:03;2.45;;;1.20;;
26696;SDS011;14312;52.614;13.496;2022-09-17T17:24:51;1.15;;;0.90;;
26696;SDS011;14312;52.614;13.496;2022-09-17T17:27:37;1.23;;;0.98;;
26696;SDS011;14312;52.614;13.496;2022-09-17T17:30:23;2.17;;;1.30;;
26696;SDS011;14312;52.614;13.496;2022-09-17T17:33:09;1.48;;;1.02;;
26696;SDS011;14312;52.614;13.496;2022-09-17T17:35:59;1.67;;;0.95;;
26696;SDS011;14312;52.614;13.496;2022-09-17T17:38:46;1.10;;;0.93;;
26696;SDS011;14312;52.614;13.496;2022-09-17T17:41:31;1.90;;;0.90;;
26696;SDS011;14312;52.614;13.496;2022-09-17T17:44:17;2.58;;;1.00;;
26696;SDS011;14312;52.614;13.496;2022-09-17T17:47:03;1.13;;;0.90;;
26696;SDS011;14312;52.614;13.496;2022-09-17T17:49:51;1.35;;;1.00;;
26696;SDS011;14312;52.614;13.496;2022-09-17T17:52:36;1.77;;;0.95;;
26696;SDS011;14312;52.614;13.496;2022-09-17T17:55:23;1.48;;;0.90;;
26696;SDS011;14312;52.614;13.496;2022-09-17T17:58:10;0.98;;;0.80;;
26696;SDS011;14312;52.614;13.496;2022-09-17T18:00:56;1.80;;;1.13;;
26696;SDS011;14312;52.614;13.496;2022-09-17T18:03:42;1.60;;;0.90;;
26696;SDS011;14312;52.614;13.496;2022-09-17T18:06:28;1.73;;;1.00;;
26696;SDS011;14312;52.614;13.496;2022-09-17T18:09:14;1.42;;;1.23;;
26696;SDS011;14312;52.614;13.496;2022-09-17T18:12:00;1.75;;;1.17;;
26696;SDS011;14312;52.614;13.496;2022-09-17T18:14:46;1.65;;;1.08;;
26696;SDS011;14312;52.614;13.496;2022-09-17T18:17:32;1.13;;;0.90;;
26696;SDS011;14312;52.614;13.496;2022-09-17T18:20:20;1.73;;;1.20;;
26696;SDS011;14312;52.614;13.496;2022-09-17T18:23:07;1.08;;;0.80;;
26696;SDS011;14312;52.614;13.496;2022-09-17T18:25:53;1.95;;;1.17;;
26696;SDS011;14312;52.614;13.496;2022-09-17T18:28:43;1.70;;;0.90;;
26696;SDS011;14312;52.614;13.496;2022-09-17T18:31:30;1.23;;;0.95;;
26696;SDS011;14312;52.614;13.496;2022-09-17T18:34:18;1.10;;;0.80;;
26696;SDS011;14312;52.614;13.496;2022-09-17T18:37:03;2.35;;;1.23;;
26696;SDS011;14312;52.614;13.496;2022-09-17T18:39:52;2.10;;;1.40;;
26696;SDS011;14312;52.614;13.496;2022-09-17T18:42:38;1.83;;;1.20;;
26696;SDS011;14312;52.614;13.496;2022-09-17T18:45:24;1.30;;;1.10;;
26696;SDS011;14312;52.614;13.496;2022-09-17T18:48:09;0.95;;;0.93;;
26696;SDS011;14312;52.614;13.496;2022-09-17T18:50:56;1.00;;;0.90;;
26696;SDS011;14312;52.614;13.496;2022-09-17T18:53:43;2.80;;;0.93;;
26696;SDS011;14312;52.614;13.496;2022-09-17T18:56:31;1.10;;;1.00;;
26696;SDS011;14312;52.614;13.496;2022-09-17T18:59:17;1.23;;;1.00;;
26696;SDS011;14312;52.614;13.496;2022-09-17T19:02:03;1.15;;;1.00;;
26696;SDS011;14312;52.614;13.496;2022-09-17T19:04:49;1.10;;;1.00;;
26696;SDS011;14312;52.614;13.496;2022-09-17T19:07:35;1.25;;;1.10;;
26696;SDS011;14312;52.614;13.496;2022-09-17T19:10:20;1.23;;;0.85;;
26696;SDS011;14312;52.614;13.496;2022-09-17T19:13:06;2.47;;;1.00;;
26696;SDS011;14312;52.614;13.496;2022-09-17T19:16:01;2.50;;;1.00;;
26696;SDS011;14312;52.614;13.496;2022-09-17T19:18:48;0.85;;;0.85;;
26696;SDS011;14312;52.614;13.496;2022-09-17T19:21:34;1.33;;;1.20;;
26696;SDS011;14312;52.614;13.496;2022-09-17T19:24:20;1.02;;;0.93;;
26696;SDS011;14312;52.614;13.496;2022-09-17T19:27:06;1.40;;;0.93;;
26696;SDS011;14312;52.614;13.496;2022-09-17T19:29:52;3.60;;;1.30;;
26696;SDS011;14312;52.614;13.496;2022-09-17T19:32:37;1.10;;;0.90;;
26696;SDS011;14312;52.614;13.496;2022-09-17T19:35:28;1.25;;;0.90;;
26696;SDS011;14312;52.614;13.496;2022-09-17T19:38:14;1.92;;;1.10;;
26696;SDS011;14312;52.614;13.496;2022-09-17T19:41:02;1.67;;;1.10;;